createdAt,value
2022-11-12T00:01:10.720Z,97021.06
2022-11-12T00:03:38.674Z,97020.78
2022-11-12T00:06:06.337Z,97021.53
2022-11-12T00:08:33.974Z,97031.28
2022-11-12T00:11:01.632Z,97019.97
2022-11-12T00:13:30.653Z,97021.09
2022-11-12T00:15:58.256Z,97022.09
2022-11-12T00:18:26.202Z,97020.34
2022-11-12T00:20:54.027Z,97022.19
2022-11-12T00:23:21.666Z,97015.19
2022-11-12T00:25:49.305Z,97020.25
2022-11-12T00:28:16.892Z,97014.28
2022-11-12T00:30:45.839Z,97017.50
2022-11-12T00:33:13.476Z,97008.19
2022-11-12T00:35:41.109Z,97011.16
2022-11-12T00:38:08.744Z,97006.34
2022-11-12T00:40:36.402Z,97010.59
2022-11-12T00:43:04.042Z,97007.66
2022-11-12T00:45:31.675Z,97007.84
2022-11-12T00:48:00.684Z,97017.03
2022-11-12T00:50:28.323Z,97011.22
2022-11-12T00:52:55.964Z,97007.72
2022-11-12T00:55:23.626Z,97005.25
2022-11-12T00:57:51.244Z,97006.91
2022-11-12T01:00:20.171Z,97011.06
2022-11-12T01:02:51.139Z,97011.41
2022-11-12T01:05:21.050Z,97015.47
2022-11-12T01:07:54.666Z,97013.63
2022-11-12T01:10:23.419Z,97014.81
2022-11-12T01:12:51.037Z,97014.25
2022-11-12T01:15:18.798Z,97004.09
2022-11-12T01:17:46.454Z,97005.84
2022-11-12T01:20:14.058Z,97000.13
2022-11-12T01:22:43.051Z,96992.44
2022-11-12T01:25:10.747Z,96988.59
2022-11-12T01:27:38.391Z,96991.28
2022-11-12T01:30:07.248Z,96988.41
2022-11-12T01:32:38.103Z,96980.66
2022-11-12T01:35:06.656Z,96985.06
2022-11-12T01:37:34.290Z,96976.41
2022-11-12T01:40:03.366Z,96968.19
2022-11-12T01:42:32.981Z,96979.72
2022-11-12T01:45:00.617Z,96977.88
2022-11-12T01:47:30.802Z,96975.69
2022-11-12T01:50:02.255Z,96976.34
2022-11-12T01:52:32.757Z,96978.00
2022-11-12T01:55:06.472Z,96970.97
2022-11-12T01:57:39.039Z,96970.84
2022-11-12T02:00:10.472Z,96960.13
2022-11-12T02:02:38.469Z,96960.97
2022-11-12T02:05:10.259Z,96962.25
2022-11-12T02:07:40.659Z,96961.03
2022-11-12T02:10:11.045Z,96950.78
2022-11-12T02:13:04.912Z,96951.16
2022-11-12T02:15:32.871Z,96945.81
2022-11-12T02:18:00.499Z,96949.31
2022-11-12T02:20:28.111Z,96947.28
2022-11-12T02:22:57.096Z,96940.72
2022-11-12T02:25:25.795Z,96942.38
2022-11-12T02:27:55.388Z,96947.72
2022-11-12T02:30:36.608Z,96944.25
2022-11-12T02:33:04.415Z,96935.19
2022-11-12T02:35:32.395Z,96938.56
2022-11-12T02:38:05.076Z,96931.44
2022-11-12T02:40:32.746Z,96933.31
2022-11-12T02:43:00.366Z,96935.59
2022-11-12T02:45:28.541Z,96933.13
2022-11-12T02:47:56.178Z,96930.88
2022-11-12T02:50:23.781Z,96933.31
2022-11-12T02:52:51.494Z,96941.97
2022-11-12T02:55:20.535Z,96937.81
2022-11-12T02:57:48.165Z,96939.28
2022-11-12T03:00:16.178Z,96931.44
2022-11-12T03:02:58.679Z,96932.94
2022-11-12T03:05:26.935Z,96935.03
2022-11-12T03:08:01.311Z,96930.69
2022-11-12T03:10:31.451Z,96940.50
2022-11-12T03:13:01.112Z,96929.94
2022-11-12T03:15:29.982Z,96951.50
2022-11-12T03:17:58.643Z,96942.59
2022-11-12T03:20:26.764Z,96951.44
2022-11-12T03:23:00.100Z,96946.97
2022-11-12T03:25:30.703Z,96953.28
2022-11-12T03:27:59.522Z,96956.34
2022-11-12T03:30:28.213Z,96961.66
2022-11-12T03:32:55.909Z,96959.13
2022-11-12T03:35:23.869Z,96955.56
2022-11-12T03:37:53.799Z,96956.97
2022-11-12T03:40:21.574Z,96953.34
2022-11-12T03:42:52.158Z,96959.91
2022-11-12T03:45:21.527Z,96962.31
2022-11-12T03:47:51.667Z,96959.16
2022-11-12T03:50:21.275Z,96964.69
2022-11-12T03:52:50.539Z,96962.19
2022-11-12T03:55:20.275Z,96967.66
2022-11-12T03:57:50.984Z,96962.31
2022-11-12T04:00:18.934Z,96972.50
2022-11-12T04:02:46.866Z,96967.09
2022-11-12T04:05:32.482Z,96971.53
2022-11-12T04:08:17.770Z,96967.78
2022-11-12T04:10:45.734Z,96967.25
2022-11-12T04:13:29.728Z,96969.00
2022-11-12T04:16:16.884Z,96966.25
2022-11-12T04:19:04.146Z,96959.25
2022-11-12T04:21:52.130Z,96965.81
2022-11-12T04:24:39.049Z,96969.22
2022-11-12T04:27:08.028Z,96964.25
2022-11-12T04:29:54.366Z,96970.34
2022-11-12T04:32:22.687Z,96970.53
2022-11-12T04:34:50.363Z,96968.41
2022-11-12T04:37:23.235Z,96960.22
2022-11-12T04:39:51.460Z,96970.53
2022-11-12T04:42:37.027Z,96972.78
2022-11-12T04:45:08.650Z,96968.56
2022-11-12T04:47:38.175Z,96973.00
2022-11-12T04:50:08.147Z,96969.88
2022-11-12T04:52:36.051Z,96977.53
2022-11-12T04:55:03.701Z,96975.69
2022-11-12T04:57:31.349Z,96981.84
2022-11-12T04:59:58.987Z,96982.59
2022-11-12T05:02:27.991Z,96977.06
2022-11-12T05:04:57.675Z,96963.78
2022-11-12T05:07:25.311Z,96971.41
2022-11-12T05:09:52.932Z,96978.97
2022-11-12T05:12:20.570Z,96983.41
2022-11-12T05:14:48.208Z,96986.09
2022-11-12T05:17:15.868Z,96982.66
2022-11-12T05:19:44.882Z,96978.59
2022-11-12T05:22:33.303Z,96984.88
2022-11-12T05:25:00.685Z,96979.56
2022-11-12T05:27:28.313Z,96973.88
2022-11-12T05:29:55.928Z,96973.50
2022-11-12T05:32:23.676Z,96978.91
2022-11-12T05:34:52.664Z,96980.44
2022-11-12T05:37:20.788Z,96975.63
2022-11-12T05:39:48.452Z,96972.00
2022-11-12T05:42:16.071Z,96966.34
2022-11-12T05:44:43.709Z,96969.63
2022-11-12T05:47:11.359Z,96967.41
2022-11-12T05:49:38.979Z,96974.09
2022-11-12T05:52:07.949Z,96968.94
2022-11-12T05:54:35.593Z,96976.63
2022-11-12T05:57:04.045Z,96983.00
2022-11-12T05:59:31.725Z,96984.09
2022-11-12T06:01:59.531Z,96990.75
2022-11-12T06:04:27.820Z,96992.03
2022-11-12T06:06:55.505Z,96996.81
2022-11-12T06:09:24.498Z,96992.75
2022-11-12T06:11:52.106Z,97000.03
2022-11-12T06:14:19.724Z,97006.25
2022-11-12T06:16:47.345Z,97005.22
2022-11-12T06:19:14.982Z,97004.50
2022-11-12T06:21:42.582Z,97003.72
2022-11-12T06:24:10.650Z,96999.34
2022-11-12T06:26:39.667Z,97000.63
2022-11-12T06:29:07.290Z,96998.34
2022-11-12T06:31:34.876Z,96994.03
2022-11-12T06:34:03.119Z,96998.97
2022-11-12T06:36:30.828Z,96995.47
2022-11-12T06:38:58.467Z,96996.88
2022-11-12T06:41:26.102Z,97005.34
2022-11-12T06:43:55.052Z,97001.41
2022-11-12T06:46:22.668Z,97001.84
2022-11-12T06:48:50.307Z,97005.75
2022-11-12T06:51:21.513Z,97005.16
2022-11-12T06:53:51.713Z,97003.50
2022-11-12T06:56:19.538Z,96989.91
2022-11-12T06:58:47.141Z,96999.78
2022-11-12T07:01:17.910Z,96994.25
2022-11-12T07:03:46.324Z,97003.97
2022-11-12T07:06:15.530Z,97000.31
2022-11-12T07:08:43.408Z,96997.00
2022-11-12T07:11:11.347Z,97000.97
2022-11-12T07:13:39.141Z,97004.09
2022-11-12T07:16:08.949Z,97013.38
2022-11-12T07:18:38.840Z,97010.28
2022-11-12T07:21:08.980Z,97016.38
2022-11-12T07:23:37.797Z,97010.66
2022-11-12T07:26:07.343Z,97008.00
2022-11-12T07:28:36.685Z,96997.91
2022-11-12T07:31:06.838Z,97001.19
2022-11-12T07:33:35.275Z,97002.25
2022-11-12T07:36:06.502Z,97004.13
2022-11-12T07:38:35.526Z,96998.00
2022-11-12T07:41:05.507Z,97000.50
2022-11-12T07:43:34.521Z,96995.59
2022-11-12T07:46:09.016Z,96995.00
2022-11-12T07:48:38.338Z,96987.97
2022-11-12T07:51:09.127Z,96984.44
2022-11-12T07:53:36.758Z,96990.22
2022-11-12T07:56:05.473Z,96992.25
2022-11-12T07:58:35.210Z,96990.16
2022-11-12T08:01:09.499Z,96993.00
2022-11-12T08:03:37.331Z,96988.88
2022-11-12T08:06:07.266Z,96989.00
2022-11-12T08:08:35.016Z,96986.75
2022-11-12T08:11:02.624Z,96993.63
2022-11-12T08:13:30.231Z,96997.97
2022-11-12T08:15:58.894Z,96991.16
2022-11-12T08:18:26.801Z,96991.97
2022-11-12T08:21:00.647Z,96995.84
2022-11-12T08:23:31.923Z,96994.47
2022-11-12T08:26:00.113Z,96996.88
2022-11-12T08:28:29.895Z,96998.94
2022-11-12T08:30:59.485Z,96997.88
2022-11-12T08:33:27.152Z,97001.81
2022-11-12T08:35:54.777Z,96996.03
2022-11-12T08:38:22.413Z,97014.34
2022-11-12T08:40:51.568Z,97003.56
2022-11-12T08:43:19.232Z,97002.84
2022-11-12T08:45:48.537Z,97002.38
2022-11-12T08:48:16.351Z,97001.25
2022-11-12T08:50:43.974Z,96999.47
2022-11-12T08:53:13.431Z,96989.31
2022-11-12T08:55:41.369Z,96996.34
2022-11-12T08:58:10.956Z,96992.88
2022-11-12T09:00:41.388Z,96996.59
2022-11-12T09:03:13.400Z,96984.09
2022-11-12T09:05:41.085Z,96990.31
2022-11-12T09:08:10.467Z,96994.72
2022-11-12T09:10:39.520Z,96991.16
2022-11-12T09:13:07.779Z,96980.63
2022-11-12T09:15:38.352Z,96993.34
2022-11-12T09:18:08.088Z,96993.69
2022-11-12T09:20:36.008Z,96991.09
2022-11-12T09:23:07.950Z,96986.41
2022-11-12T09:25:36.561Z,96996.75
2022-11-12T09:28:09.277Z,96987.97
2022-11-12T09:30:39.227Z,96984.59
2022-11-12T09:33:06.924Z,96990.66
2022-11-12T09:35:35.190Z,96993.69
2022-11-12T09:38:02.861Z,96992.75
2022-11-12T09:40:43.517Z,96982.81
2022-11-12T09:43:18.280Z,96978.03
2022-11-12T09:46:06.456Z,96981.50
2022-11-12T09:48:41.026Z,96975.88
2022-11-12T09:51:16.974Z,96970.59
2022-11-12T09:53:49.229Z,96974.66
2022-11-12T09:56:20.856Z,96972.56
2022-11-12T09:58:49.000Z,96974.78
2022-11-12T10:01:23.430Z,96972.56
2022-11-12T10:04:00.320Z,96969.22
2022-11-12T10:06:35.475Z,96968.47
2022-11-12T10:09:10.210Z,96960.41
2022-11-12T10:12:06.982Z,96950.69
2022-11-12T10:14:51.426Z,96960.41
2022-11-12T10:17:33.334Z,96948.41
2022-11-12T10:20:15.305Z,96953.22
2022-11-12T10:22:59.584Z,96949.53
2022-11-12T10:25:28.436Z,96943.47
2022-11-12T10:27:57.229Z,96940.13
2022-11-12T10:30:26.654Z,96926.00
2022-11-12T10:32:55.642Z,96931.53
2022-11-12T10:35:24.982Z,96931.97
2022-11-12T10:37:58.666Z,96918.13
2022-11-12T10:40:33.052Z,96922.69
2022-11-12T10:43:04.036Z,96918.78
2022-11-12T10:45:32.363Z,96918.91
2022-11-12T10:48:01.387Z,96914.50
2022-11-12T10:50:34.620Z,96900.00
2022-11-12T10:53:03.746Z,96897.22
2022-11-12T10:55:33.302Z,96901.41
2022-11-12T10:58:14.726Z,96891.59
2022-11-12T11:00:55.416Z,96894.31
2022-11-12T11:03:26.390Z,96893.31
2022-11-12T11:05:57.223Z,96882.94
2022-11-12T11:08:37.708Z,96891.13
2022-11-12T11:11:20.100Z,96882.41
2022-11-12T11:13:52.863Z,96882.41
2022-11-12T11:16:25.209Z,96878.31
2022-11-12T11:18:57.389Z,96868.69
2022-11-12T11:21:45.261Z,96874.41
2022-11-12T11:24:22.645Z,96866.56
2022-11-12T11:27:03.258Z,96870.88
2022-11-12T11:29:45.562Z,96871.91
2022-11-12T11:32:26.540Z,96870.34
2022-11-12T11:35:08.203Z,96863.81
2022-11-12T11:37:43.174Z,96861.38
2022-11-12T11:40:19.458Z,96866.28
2022-11-12T11:43:04.778Z,96857.53
2022-11-12T11:45:46.709Z,96850.19
2022-11-12T11:48:24.124Z,96849.34
2022-11-12T11:51:00.639Z,96853.94
2022-11-12T11:53:34.115Z,96844.69
2022-11-12T11:56:05.973Z,96851.00
2022-11-12T11:58:59.324Z,96846.91
2022-11-12T12:01:36.165Z,96833.22
2022-11-12T12:04:28.256Z,96840.00
2022-11-12T12:07:10.978Z,96844.13
2022-11-12T12:09:48.777Z,96841.66
2022-11-12T12:12:26.933Z,96834.06
2022-11-12T12:15:07.935Z,96829.69
2022-11-12T12:17:50.768Z,96820.94
2022-11-12T12:20:23.042Z,96834.31
2022-11-12T12:22:57.500Z,96830.78
2022-11-12T12:25:29.315Z,96837.88
2022-11-12T12:28:03.299Z,96830.75
2022-11-12T12:30:35.690Z,96834.28
2022-11-12T12:33:19.826Z,96830.13
2022-11-12T12:35:55.084Z,96823.88
2022-11-12T12:38:28.473Z,96836.41
2022-11-12T12:41:03.899Z,96823.53
2022-11-12T12:43:36.919Z,96821.09
2022-11-12T12:46:05.748Z,96812.13
2022-11-12T12:48:37.261Z,96813.66
2022-11-12T12:51:05.178Z,96813.88
2022-11-12T12:53:36.207Z,96812.00
2022-11-12T12:56:05.734Z,96805.97
2022-11-12T12:58:34.810Z,96806.22
2022-11-12T13:01:04.971Z,96800.91
2022-11-12T13:03:54.568Z,96798.38
2022-11-12T13:06:28.751Z,96794.28
2022-11-12T13:09:02.790Z,96786.72
2022-11-12T13:12:17.930Z,96781.53
2022-11-12T13:14:59.320Z,96794.56
2022-11-12T13:17:50.665Z,96782.03
2022-11-12T13:20:41.645Z,96786.84
2022-11-12T13:23:12.185Z,96787.38
2022-11-12T13:25:41.232Z,96790.94
2022-11-12T13:28:11.395Z,96794.78
2022-11-12T13:31:00.255Z,96795.00
2022-11-12T13:33:36.619Z,96783.63
2022-11-12T13:36:27.243Z,96784.16
2022-11-12T13:39:11.286Z,96788.84
2022-11-12T13:41:58.030Z,96782.34
2022-11-12T13:44:25.883Z,96781.44
2022-11-12T13:46:55.900Z,96783.78
2022-11-12T13:49:23.887Z,96785.63
2022-11-12T13:51:53.235Z,96780.53
2022-11-12T13:54:29.736Z,96778.56
2022-11-12T13:57:14.639Z,96766.56
2022-11-12T13:59:44.092Z,96766.97
2022-11-12T14:02:22.261Z,96773.66
2022-11-12T14:04:50.660Z,96772.94
2022-11-12T14:07:36.220Z,96775.34
2022-11-12T14:10:12.705Z,96769.31
2022-11-12T14:13:02.141Z,96774.38
2022-11-12T14:15:43.545Z,96770.22
2022-11-12T14:18:18.380Z,96770.88
2022-11-12T14:20:46.125Z,96771.03
2022-11-12T14:23:21.532Z,96762.22
2022-11-12T14:25:53.475Z,96754.16
2022-11-12T14:28:31.333Z,96757.56
2022-11-12T14:31:01.050Z,96751.72
2022-11-12T14:33:30.442Z,96761.00
2022-11-12T14:36:03.035Z,96758.41
2022-11-12T14:38:36.963Z,96753.09
2022-11-12T14:41:09.031Z,96743.38
2022-11-12T14:43:39.887Z,96747.03
2022-11-12T14:46:08.817Z,96748.47
2022-11-12T14:48:47.519Z,96744.56
2022-11-12T14:51:16.028Z,96745.94
2022-11-12T14:53:48.515Z,96746.59
2022-11-12T14:56:25.713Z,96748.03
2022-11-12T14:58:57.013Z,96749.75
2022-11-12T15:04:21.628Z,96756.31
2022-11-12T15:06:53.715Z,96754.38
2022-11-12T15:09:34.008Z,96759.00
2022-11-12T15:12:02.038Z,96755.97
2022-11-12T15:14:31.359Z,96752.72
2022-11-12T15:17:00.598Z,96754.84
2022-11-12T15:19:29.685Z,96751.94
2022-11-12T15:22:01.096Z,96756.50
2022-11-12T15:24:32.378Z,96753.22
2022-11-12T15:27:02.422Z,96753.34
2022-11-12T15:29:34.132Z,96756.25
2022-11-12T15:32:23.100Z,96757.31
2022-11-12T15:34:52.190Z,96752.13
2022-11-12T15:37:26.820Z,96764.44
2022-11-12T15:39:58.355Z,96763.72
2022-11-12T15:42:29.330Z,96752.09
2022-11-12T15:45:01.634Z,96756.47
2022-11-12T15:47:29.665Z,96757.41
2022-11-12T15:49:59.631Z,96743.81
2022-11-12T15:52:27.944Z,96753.78
2022-11-12T15:54:55.850Z,96754.63
2022-11-12T15:57:26.861Z,96753.09
2022-11-12T16:00:07.583Z,96757.31
2022-11-12T16:02:36.115Z,96749.44
2022-11-12T16:05:03.964Z,96745.59
2022-11-12T16:07:31.652Z,96738.53
2022-11-12T16:09:59.330Z,96738.19
2022-11-12T16:12:27.906Z,96744.19
2022-11-12T16:14:55.680Z,96745.59
2022-11-12T16:17:24.747Z,96750.63
2022-11-12T16:19:52.378Z,96752.13
2022-11-12T16:22:20.035Z,96756.25
2022-11-12T16:24:47.686Z,96759.19
2022-11-12T16:27:16.473Z,96751.91
2022-11-12T16:29:44.131Z,96751.09
2022-11-12T16:32:15.283Z,96745.47
2022-11-12T16:34:44.275Z,96751.09
2022-11-12T16:37:13.365Z,96751.31
2022-11-12T16:39:41.301Z,96748.84
2022-11-12T16:42:10.618Z,96748.53
2022-11-12T16:44:38.361Z,96755.22
2022-11-12T16:47:09.401Z,96750.97
2022-11-12T16:49:38.914Z,96746.16
2022-11-12T16:52:10.225Z,96745.91
2022-11-12T16:54:37.936Z,96744.63
2022-11-12T16:57:05.716Z,96746.97
2022-11-12T16:59:33.408Z,96744.75
2022-11-12T17:02:01.052Z,96754.38
2022-11-12T17:04:28.748Z,96745.31
2022-11-12T17:06:56.446Z,96752.00
2022-11-12T17:09:25.717Z,96740.84
2022-11-12T17:11:53.356Z,96744.38
2022-11-12T17:14:24.295Z,96746.22
2022-11-12T17:16:55.715Z,96746.22
2022-11-12T17:19:23.434Z,96746.59
2022-11-12T17:21:51.211Z,96738.03
2022-11-12T17:24:18.988Z,96749.38
2022-11-12T17:26:48.041Z,96741.66
2022-11-12T17:29:15.688Z,96740.38
2022-11-12T17:31:43.380Z,96737.91
2022-11-12T17:34:11.078Z,96741.66
2022-11-12T17:36:43.380Z,96742.47
2022-11-12T17:39:12.793Z,96744.56
2022-11-12T17:41:40.501Z,96738.94
2022-11-12T17:44:09.552Z,96733.63
2022-11-12T17:46:37.432Z,96737.53
2022-11-12T17:49:05.056Z,96728.00
2022-11-12T17:51:32.769Z,96729.22
2022-11-12T17:54:00.451Z,96728.47
2022-11-12T17:56:31.793Z,96726.97
2022-11-12T17:59:02.573Z,96723.66
2022-11-12T18:01:33.533Z,96725.09
2022-11-12T18:04:01.954Z,96717.81
2022-11-12T18:06:31.985Z,96716.16
2022-11-12T18:09:01.885Z,96712.06
2022-11-12T18:11:32.816Z,96712.66
2022-11-12T18:14:06.569Z,96716.31
2022-11-12T18:16:36.663Z,96714.97
2022-11-12T18:19:05.267Z,96718.84
2022-11-12T18:21:35.137Z,96708.53
2022-11-12T18:24:02.766Z,96709.81
2022-11-12T18:26:30.416Z,96710.41
2022-11-12T18:28:59.220Z,96709.25
2022-11-12T18:31:28.353Z,96708.16
2022-11-12T18:33:59.900Z,96706.13
2022-11-12T18:36:28.457Z,96700.75
2022-11-12T18:38:56.797Z,96699.22
2022-11-12T18:41:26.974Z,96698.88
2022-11-12T18:43:55.684Z,96696.44
2022-11-12T18:46:24.107Z,96690.88
2022-11-12T18:48:52.125Z,96702.56
2022-11-12T18:51:21.269Z,96696.78
2022-11-12T18:53:49.018Z,96693.38
2022-11-12T18:56:19.276Z,96695.63
2022-11-12T18:58:47.450Z,96694.66
2022-11-12T19:01:17.229Z,96690.09
2022-11-12T19:03:45.284Z,96695.88
2022-11-12T19:06:14.204Z,96680.81
2022-11-12T19:08:43.270Z,96684.56
2022-11-12T19:11:12.812Z,96676.94
2022-11-12T19:13:40.746Z,96677.31
2022-11-12T19:16:11.726Z,96678.50
2022-11-12T19:18:40.813Z,96680.38
2022-11-12T19:21:11.106Z,96674.28
2022-11-12T19:23:39.434Z,96673.78
2022-11-12T19:26:09.719Z,96664.03
2022-11-12T19:28:37.427Z,96667.56
2022-11-12T19:31:06.047Z,96668.03
2022-11-12T19:33:36.948Z,96659.09
2022-11-12T19:36:07.241Z,96655.03
2022-11-12T19:38:35.007Z,96664.97
2022-11-12T19:41:06.143Z,96654.66
2022-11-12T19:43:35.309Z,96655.25
2022-11-12T19:46:03.373Z,96653.97
2022-11-12T19:48:31.605Z,96651.28
2022-11-12T19:51:01.662Z,96640.84
2022-11-12T19:53:31.544Z,96646.44
2022-11-12T19:56:04.363Z,96653.84
2022-11-12T19:58:32.597Z,96648.91
2022-11-12T20:01:05.794Z,96645.88
2022-11-12T20:03:33.464Z,96652.56
2022-11-12T20:06:02.659Z,96639.91
2022-11-12T20:08:30.768Z,96639.69
2022-11-12T20:10:58.813Z,96641.22
2022-11-12T20:13:27.064Z,96639.56
2022-11-12T20:15:54.945Z,96642.94
2022-11-12T20:18:25.654Z,96633.69
2022-11-12T20:20:55.982Z,96634.03
2022-11-12T20:23:25.028Z,96622.41
2022-11-12T20:25:53.964Z,96621.50
2022-11-12T20:28:21.760Z,96614.22
2022-11-12T20:30:49.846Z,96620.81
2022-11-12T20:33:17.635Z,96620.06
2022-11-12T20:35:46.665Z,96613.84
2022-11-12T20:38:14.396Z,96612.91
2022-11-12T20:40:42.160Z,96616.19
2022-11-12T20:43:09.988Z,96613.63
2022-11-12T20:45:37.722Z,96613.41
2022-11-12T20:48:06.751Z,96616.25
2022-11-12T20:50:34.534Z,96606.00
2022-11-12T20:53:03.700Z,96614.47
2022-11-12T20:55:32.639Z,96615.00
2022-11-12T20:58:01.414Z,96604.78
2022-11-12T21:00:29.062Z,96605.38
2022-11-12T21:02:56.910Z,96600.34
2022-11-12T21:05:25.011Z,96607.63
2022-11-12T21:07:52.933Z,96606.78
2022-11-12T21:10:24.998Z,96607.63
2022-11-12T21:12:53.171Z,96605.00
2022-11-12T21:15:21.420Z,96606.88
2022-11-12T21:17:51.638Z,96602.81
2022-11-12T21:20:19.376Z,96601.41
2022-11-12T21:22:47.213Z,96604.94
2022-11-12T21:25:15.209Z,96603.16
2022-11-12T21:27:44.388Z,96593.56
2022-11-12T21:30:13.634Z,96589.66
2022-11-12T21:32:41.408Z,96586.38
2022-11-12T21:35:09.498Z,96588.94
2022-11-12T21:37:37.155Z,96585.19
2022-11-12T21:40:05.745Z,96576.75
2022-11-12T21:42:33.478Z,96573.56
2022-11-12T21:45:02.523Z,96569.88
2022-11-12T21:47:30.284Z,96572.13
2022-11-12T21:49:58.045Z,96571.31
2022-11-12T21:52:25.763Z,96569.66
2022-11-12T21:54:53.452Z,96566.75
2022-11-12T21:57:21.196Z,96569.00
2022-11-12T21:59:48.921Z,96566.88
2022-11-12T22:02:17.989Z,96571.00
2022-11-12T22:04:45.720Z,96567.72
2022-11-12T22:07:13.408Z,96565.56
2022-11-12T22:09:41.063Z,96576.31
2022-11-12T22:12:08.831Z,96569.66
2022-11-12T22:14:36.470Z,96572.34
2022-11-12T22:17:04.218Z,96565.47
2022-11-12T22:19:34.357Z,96561.47
2022-11-12T22:22:02.112Z,96572.25
2022-11-12T22:24:29.790Z,96556.91
2022-11-12T22:27:00.058Z,96552.66
2022-11-12T22:29:31.933Z,96558.81
2022-11-12T22:31:59.628Z,96557.28
2022-11-12T22:34:27.286Z,96556.13
2022-11-12T22:36:56.277Z,96539.06
2022-11-12T22:39:23.915Z,96547.63
2022-11-12T22:41:51.578Z,96543.00
2022-11-12T22:44:20.003Z,96536.72
2022-11-12T22:46:47.928Z,96541.13
2022-11-12T22:49:15.609Z,96549.41
2022-11-12T22:51:43.317Z,96539.34
2022-11-12T22:54:15.627Z,96538.75
2022-11-12T22:56:43.323Z,96535.84
2022-11-12T23:04:10.131Z,96524.69
2022-11-12T23:06:37.889Z,96519.16
2022-11-12T23:09:05.959Z,96511.63
2022-11-12T23:11:33.926Z,96526.72
2022-11-12T23:14:01.598Z,96517.25
2022-11-12T23:16:31.389Z,96517.75
2022-11-12T23:18:59.725Z,96509.22
2022-11-12T23:21:30.643Z,96515.59
2022-11-12T23:23:58.736Z,96519.63
2022-11-12T23:26:28.612Z,96511.16
2022-11-12T23:28:56.227Z,96511.53
2022-11-12T23:31:26.383Z,96500.66
2022-11-12T23:33:56.089Z,96500.41
2022-11-12T23:36:24.978Z,96498.78
2022-11-12T23:38:54.587Z,96486.84
2022-11-12T23:41:25.687Z,96490.63
2022-11-12T23:43:54.177Z,96481.97
2022-11-12T23:46:22.290Z,96485.13
2022-11-12T23:48:50.280Z,96479.97
2022-11-12T23:51:19.656Z,96473.31
2022-11-12T23:53:48.817Z,96478.09
2022-11-12T23:56:19.652Z,96471.16
2022-11-12T23:58:48.075Z,96469.88
